Time;durP1;ratioP1;P1;durP2;ratioP2;P2;SDS_P1;SDS_P2;PMS_P1;PMS_P2;Temp;Humidity;BMP_temperature;BMP_pressure;BME280_temperature;BME280_humidity;BME280_pressure;Samples;Min_cycle;Max_cycle;Signal;HPM_P1;HPM_P2
2022/06/05 00:01:39;;;;;;;0.40;0.40;;;25.60;99.90;;;;;;5071867;28;20755;-79
2022/06/05 00:04:18;;;;;;;0.22;0.22;;;25.50;99.90;;;;;;5072541;28;20206;-78
2022/06/05 00:06:53;;;;;;;0.20;0.20;;;25.50;99.90;;;;;;5071771;28;20685;-78
2022/06/05 00:09:37;;;;;;;0.45;0.45;;;25.50;99.90;;;;;;5071721;28;20218;-79
2022/06/05 00:12:07;;;;;;;1.00;1.00;;;25.50;99.90;;;;;;5071926;28;20617;-76
2022/06/05 00:14:37;;;;;;;2.17;1.85;;;25.50;99.90;;;;;;5071881;28;20644;-77
2022/06/05 00:17:05;;;;;;;1.85;1.75;;;25.50;99.90;;;;;;5072301;28;20705;-77
2022/06/05 00:19:32;;;;;;;0.47;0.47;;;25.50;99.90;;;;;;5071615;28;20628;-76
2022/06/05 00:21:59;;;;;;;0.10;0.10;;;25.50;99.90;;;;;;5071823;28;20264;-76
2022/06/05 00:24:27;;;;;;;0.20;0.20;;;25.60;99.90;;;;;;5071592;28;20264;-76
2022/06/05 00:27:01;;;;;;;6.22;4.95;;;25.50;99.90;;;;;;5071969;28;20276;-76
2022/06/05 00:29:43;;;;;;;0.43;0.43;;;25.30;99.90;;;;;;5071460;28;20297;-76
2022/06/05 00:32:15;;;;;;;0.30;0.30;;;25.30;99.90;;;;;;5071862;28;20214;-78
2022/06/05 00:34:43;;;;;;;1.25;1.15;;;25.50;99.90;;;;;;5071780;28;20263;-78
2022/06/05 00:37:19;;;;;;;0.75;0.63;;;25.40;99.90;;;;;;5072115;28;20244;-77
2022/06/05 00:39:57;;;;;;;0.55;0.55;;;25.50;99.90;;;;;;5071804;28;20677;-78
2022/06/05 00:42:26;;;;;;;0.50;0.50;;;25.40;99.90;;;;;;5071213;28;20202;-77
2022/06/05 00:44:56;;;;;;;1.02;1.02;;;25.30;99.90;;;;;;5071393;28;20206;-77
2022/06/05 00:47:26;;;;;;;0.50;0.50;;;25.30;99.90;;;;;;5071582;28;20214;-77
2022/06/05 00:49:57;;;;;;;1.00;1.00;;;25.30;99.90;;;;;;5071605;28;20214;-78
2022/06/05 00:52:26;;;;;;;1.35;1.30;;;25.30;99.90;;;;;;5071128;28;20210;-77
2022/06/05 00:54:54;;;;;;;0.20;0.20;;;25.40;99.90;;;;;;5071101;28;20248;-78
2022/06/05 00:57:22;;;;;;;0.30;0.30;;;25.50;99.90;;;;;;5071156;28;20290;-77
2022/06/05 00:59:51;;;;;;;0.20;0.20;;;25.40;99.90;;;;;;5071300;28;20210;-77
2022/06/05 01:02:19;;;;;;;1.10;0.88;;;25.50;99.90;;;;;;5071060;28;20206;-75
2022/06/05 01:04:49;;;;;;;0.43;0.43;;;25.80;99.90;;;;;;5071692;28;20252;-76
2022/06/05 01:07:16;;;;;;;0.20;0.20;;;25.80;99.90;;;;;;5071371;28;20198;-76
2022/06/05 01:09:45;;;;;;;0.82;0.80;;;26.10;99.90;;;;;;5071135;28;20264;-76
2022/06/05 01:12:20;;;;;;;0.20;0.20;;;26.00;99.90;;;;;;5071350;28;20635;-76
2022/06/05 01:14:59;;;;;;;0.20;0.20;;;26.10;99.90;;;;;;5071391;28;20569;-75
2022/06/05 01:17:35;;;;;;;0.52;0.52;;;26.00;99.90;;;;;;5069915;28;20233;-74
2022/06/05 01:20:13;;;;;;;0.52;0.52;;;25.80;99.90;;;;;;5071000;28;20664;-74
2022/06/05 01:23:17;;;;;;;0.20;0.20;;;25.80;99.90;;;;;;5070812;28;20747;-76
2022/06/05 01:26:04;;;;;;;0.32;0.32;;;25.80;99.90;;;;;;5071194;28;20209;-75
2022/06/05 01:28:33;;;;;;;0.10;0.10;;;25.60;99.90;;;;;;5070623;28;20209;-76
2022/06/05 01:31:09;;;;;;;0.90;0.90;;;25.30;99.90;;;;;;5070841;28;20213;-75
2022/06/05 01:33:42;;;;;;;0.28;0.28;;;25.40;99.90;;;;;;5070791;28;20210;-76
2022/06/05 01:36:13;;;;;;;0.55;0.47;;;25.40;99.90;;;;;;5070659;28;20287;-75
2022/06/05 01:38:48;;;;;;;0.88;0.88;;;25.30;99.90;;;;;;5070371;28;20214;-75
2022/06/05 01:41:20;;;;;;;0.40;0.40;;;25.20;99.90;;;;;;5070968;28;20209;-75
2022/06/05 01:43:52;;;;;;;0.22;0.22;;;25.30;99.90;;;;;;5070945;28;20272;-73
2022/06/05 01:46:23;;;;;;;0.40;0.40;;;25.30;99.90;;;;;;5070695;28;20283;-73
2022/06/05 01:48:54;;;;;;;0.60;0.60;;;25.40;99.90;;;;;;5070887;28;20277;-74
2022/06/05 01:51:29;;;;;;;0.20;0.20;;;25.30;99.90;;;;;;5070265;28;20267;-73
2022/06/05 01:54:00;;;;;;;0.73;0.73;;;25.20;99.90;;;;;;5070273;28;20210;-73
2022/06/05 01:56:34;;;;;;;0.25;0.25;;;25.00;99.90;;;;;;5070150;28;20295;-73
2022/06/05 01:59:09;;;;;;;0.30;0.30;;;24.90;99.90;;;;;;5070415;28;20219;-74
2022/06/05 02:01:40;;;;;;;0.20;0.20;;;24.80;99.90;;;;;;5070065;28;20243;-72
2022/06/05 02:04:16;;;;;;;1.60;1.50;;;24.70;99.90;;;;;;5068640;28;20227;-73
2022/06/05 02:06:47;;;;;;;4.97;4.50;;;24.70;99.90;;;;;;5070433;28;20270;-73
2022/06/05 02:09:19;;;;;;;2.10;2.00;;;24.90;99.90;;;;;;5070734;28;20238;-72
2022/06/05 02:11:49;;;;;;;0.20;0.20;;;24.70;99.90;;;;;;5070533;28;20206;-74
2022/06/05 02:14:17;;;;;;;0.20;0.20;;;24.90;99.90;;;;;;5070597;28;20293;-76
2022/06/05 02:16:44;;;;;;;0.20;0.20;;;24.70;99.90;;;;;;5070554;28;20233;-76
2022/06/05 02:19:15;;;;;;;0.30;0.30;;;24.60;99.90;;;;;;5070077;28;20255;-75
2022/06/05 02:21:43;;;;;;;0.20;0.20;;;24.50;99.90;;;;;;5070046;28;20259;-76
2022/06/05 02:24:12;;;;;;;0.20;0.20;;;24.50;99.90;;;;;;5070206;28;20268;-75
2022/06/05 02:26:41;;;;;;;0.40;0.40;;;24.40;99.90;;;;;;5069969;28;20674;-76
2022/06/05 02:29:15;;;;;;;0.57;0.57;;;24.30;99.90;;;;;;5070802;28;20214;-76
2022/06/05 02:32:01;;;;;;;0.10;0.10;;;24.10;99.90;;;;;;5074140;28;20229;-75
2022/06/05 02:34:37;;;;;;;0.40;0.40;;;24.10;99.90;;;;;;5073647;28;20673;-74
2022/06/05 02:37:14;;;;;;;0.20;0.20;;;24.10;99.90;;;;;;5073799;28;20234;-75
2022/06/05 02:39:51;;;;;;;0.20;0.20;;;24.20;99.90;;;;;;5073314;28;20214;-75
2022/06/05 02:42:28;;;;;;;0.55;0.55;;;24.10;99.90;;;;;;5073904;28;20610;-73
2022/06/05 02:45:05;;;;;;;0.13;0.13;;;24.20;99.90;;;;;;5073892;28;20206;-73
2022/06/05 02:47:40;;;;;;;0.55;0.55;;;24.20;99.90;;;;;;5073521;28;20264;-75
2022/06/05 02:50:11;;;;;;;0.20;0.20;;;24.20;99.90;;;;;;5073736;28;20628;-74
2022/06/05 02:52:41;;;;;;;0.10;0.10;;;24.20;99.90;;;;;;5073421;28;20659;-74
2022/06/05 02:55:12;;;;;;;0.20;0.20;;;24.20;99.90;;;;;;5073704;28;20210;-75
2022/06/05 02:57:38;;;;;;;0.20;0.20;;;24.20;99.90;;;;;;5073345;28;20238;-75
2022/06/05 03:00:12;;;;;;;0.35;0.32;;;24.10;99.90;;;;;;5073589;28;20202;-75
2022/06/05 03:05:24;;;;;;;0.20;0.20;;;24.40;99.90;;;;;;5072758;28;20581;-76
2022/06/05 03:07:51;;;;;;;0.20;0.20;;;24.50;99.90;;;;;;5073613;28;20260;-75
2022/06/05 03:10:18;;;;;;;0.40;0.40;;;24.40;99.90;;;;;;5073287;28;20661;-74
2022/06/05 03:12:45;;;;;;;0.10;0.10;;;24.50;99.90;;;;;;5073593;28;20259;-75
2022/06/05 03:15:15;;;;;;;0.20;0.20;;;24.60;99.90;;;;;;5073320;28;20206;-75
2022/06/05 03:17:42;;;;;;;0.20;0.20;;;24.50;99.90;;;;;;5073093;28;20317;-74
2022/06/05 03:20:11;;;;;;;0.50;0.50;;;24.40;99.90;;;;;;5073272;28;20202;-75
2022/06/05 03:22:38;;;;;;;0.20;0.20;;;24.30;99.90;;;;;;5072844;28;20202;-75
2022/06/05 03:25:06;;;;;;;8.80;8.00;;;24.30;99.90;;;;;;5073131;28;20208;-75
2022/06/05 03:27:33;;;;;;;11.93;8.40;;;24.40;99.90;;;;;;5072701;28;20279;-74
2022/06/05 03:30:01;;;;;;;8.88;7.97;;;24.50;99.90;;;;;;5073374;28;20279;-75
2022/06/05 03:32:30;;;;;;;9.60;7.70;;;24.40;99.90;;;;;;5072626;28;20624;-74
2022/06/05 03:34:57;;;;;;;8.23;7.43;;;24.30;99.90;;;;;;5072728;28;20214;-74
2022/06/05 03:37:24;;;;;;;9.50;6.85;;;24.10;99.90;;;;;;5072472;28;20230;-75
2022/06/05 03:39:51;;;;;;;9.93;6.95;;;24.10;99.90;;;;;;5072883;28;20210;-76
2022/06/05 03:42:18;;;;;;;10.25;8.07;;;24.00;99.90;;;;;;5071606;28;20627;-74
2022/06/05 03:44:45;;;;;;;10.68;8.88;;;24.10;99.90;;;;;;5073515;28;20206;-75
2022/06/05 03:47:13;;;;;;;9.20;8.07;;;24.20;99.90;;;;;;5073247;28;20692;-76
2022/06/05 03:49:41;;;;;;;12.98;7.80;;;24.10;99.90;;;;;;5072196;28;20209;-76
2022/06/05 03:52:10;;;;;;;8.95;8.13;;;23.90;99.90;;;;;;5073358;28;20255;-78
2022/06/05 03:54:38;;;;;;;9.43;8.05;;;23.90;99.90;;;;;;5072088;28;20719;-77
2022/06/05 03:57:06;;;;;;;8.05;7.20;;;24.10;99.90;;;;;;5072935;28;20233;-78
2022/06/05 03:59:35;;;;;;;12.73;7.68;;;23.80;99.90;;;;;;5072080;28;20622;-76
2022/06/05 04:02:02;;;;;;;8.25;7.10;;;23.50;99.90;;;;;;5072716;28;20292;-78
2022/06/05 04:04:29;;;;;;;10.10;6.65;;;23.50;99.90;;;;;;5071963;28;20251;-77
2022/06/05 04:06:58;;;;;;;8.20;7.45;;;23.50;99.90;;;;;;5072450;28;20214;-79
2022/06/05 04:09:25;;;;;;;7.28;6.63;;;23.40;99.90;;;;;;5072163;28;20202;-78
2022/06/05 04:11:52;;;;;;;7.10;6.40;;;23.40;99.90;;;;;;5072088;28;20677;-74
2022/06/05 04:14:19;;;;;;;7.05;5.93;;;23.40;99.90;;;;;;5072065;28;20676;-79
2022/06/05 04:16:46;;;;;;;7.07;6.38;;;23.10;99.90;;;;;;5072663;28;20226;-80
2022/06/05 04:19:13;;;;;;;9.40;5.90;;;22.90;99.90;;;;;;5072461;28;20627;-78
2022/06/05 04:21:43;;;;;;;5.68;5.18;;;22.80;99.90;;;;;;5071740;28;20210;-79
2022/06/05 04:24:12;;;;;;;6.63;5.30;;;22.70;99.90;;;;;;5072162;28;20206;-80
2022/06/05 04:26:42;;;;;;;6.03;5.32;;;22.50;99.90;;;;;;5071930;28;20218;-79
2022/06/05 04:29:09;;;;;;;6.30;5.70;;;22.40;99.90;;;;;;5071986;28;20238;-77
2022/06/05 04:31:38;;;;;;;7.03;5.55;;;22.40;99.90;;;;;;5071567;28;20263;-76
2022/06/05 04:34:06;;;;;;;6.03;5.53;;;22.30;99.90;;;;;;5071449;28;20218;-79
2022/06/05 04:36:34;;;;;;;11.65;5.88;;;22.20;99.90;;;;;;5071371;28;20669;-80
2022/06/05 04:39:01;;;;;;;7.93;6.50;;;22.20;99.90;;;;;;5071906;28;20214;-79
2022/06/05 04:41:29;;;;;;;7.32;6.20;;;22.10;99.90;;;;;;5071993;28;20260;-81
2022/06/05 04:43:57;;;;;;;6.55;6.00;;;21.90;99.90;;;;;;5072033;28;20210;-80
2022/06/05 04:46:26;;;;;;;6.57;5.97;;;21.90;99.90;;;;;;5071046;28;20206;-79
2022/06/05 04:48:53;;;;;;;7.85;5.88;;;21.70;99.90;;;;;;5071459;28;20206;-76
2022/06/05 04:51:21;;;;;;;7.85;6.15;;;21.70;99.90;;;;;;5071197;28;20255;-76
2022/06/05 04:53:49;;;;;;;5.53;4.82;;;21.60;99.90;;;;;;5071554;28;20214;-74
2022/06/05 04:56:18;;;;;;;7.40;5.15;;;21.50;99.90;;;;;;5071829;28;20206;-77
2022/06/05 04:58:47;;;;;;;11.32;5.50;;;21.60;99.90;;;;;;5070126;28;20325;-76
2022/06/05 05:01:16;;;;;;;7.80;5.78;;;21.40;99.90;;;;;;5071828;28;20202;-74
2022/06/05 05:03:43;;;;;;;8.27;6.22;;;21.40;99.90;;;;;;5071118;28;20206;-75
2022/06/05 05:06:11;;;;;;;5.80;5.30;;;21.60;99.90;;;;;;5071061;28;20747;-75
2022/06/05 05:08:38;;;;;;;6.55;5.68;;;21.40;99.90;;;;;;5071004;28;20213;-76
2022/06/05 05:11:06;;;;;;;7.38;5.65;;;21.30;99.90;;;;;;5071231;28;20202;-75
2022/06/05 05:13:33;;;;;;;10.93;6.75;;;21.30;99.90;;;;;;5070302;28;20210;-73
2022/06/05 05:16:01;;;;;;;10.65;5.95;;;21.30;99.90;;;;;;5071074;28;20306;-71
2022/06/05 05:18:28;;;;;;;6.57;5.75;;;21.00;99.90;;;;;;5070547;28;20291;-76
2022/06/05 05:20:55;;;;;;;8.00;5.90;;;20.90;99.90;;;;;;5057134;28;20199;-75
2022/06/05 05:23:22;;;;;;;8.07;6.38;;;20.80;99.90;;;;;;5071195;28;20206;-75
2022/06/05 05:25:50;;;;;;;8.02;6.03;;;20.90;99.90;;;;;;5070305;28;20210;-76
2022/06/05 05:28:16;;;;;;;7.20;6.18;;;20.90;99.90;;;;;;5071135;28;20255;-74
2022/06/05 05:30:45;;;;;;;7.40;6.05;;;20.80;99.90;;;;;;5070565;28;21744;-71
2022/06/05 05:33:14;;;;;;;8.98;6.47;;;20.60;99.90;;;;;;5071101;28;20293;-71
2022/06/05 05:35:41;;;;;;;6.63;5.75;;;20.40;99.90;;;;;;5070184;28;20229;-76
2022/06/05 05:38:08;;;;;;;7.82;6.47;;;20.40;99.90;;;;;;5070440;28;20303;-73
2022/06/05 05:43:20;;;;;;;7.85;7.15;;;20.30;99.90;;;;;;5070433;28;20592;-78
2022/06/05 05:45:49;;;;;;;11.55;7.43;;;20.30;99.90;;;;;;5070706;28;21082;-79
2022/06/05 05:48:17;;;;;;;12.48;7.57;;;20.30;99.90;;;;;;5070990;28;20296;-73
2022/06/05 05:50:45;;;;;;;8.50;7.28;;;20.20;99.90;;;;;;5070760;28;20260;-76
2022/06/05 05:53:12;;;;;;;9.27;7.32;;;20.10;99.90;;;;;;5070437;28;20217;-74
2022/06/05 05:55:39;;;;;;;11.35;8.10;;;20.20;99.90;;;;;;5069890;28;20210;-75
2022/06/05 05:58:06;;;;;;;15.07;8.10;;;20.30;99.90;;;;;;5070447;28;20698;-76
2022/06/05 06:00:33;;;;;;;11.32;8.15;;;20.00;99.90;;;;;;5070044;28;20279;-75
2022/06/05 06:03:00;;;;;;;7.90;7.05;;;19.40;99.90;;;;;;5070443;28;20737;-76
2022/06/05 06:05:28;;;;;;;8.68;6.95;;;19.50;99.90;;;;;;5069448;28;20206;-73
2022/06/05 06:07:55;;;;;;;8.38;7.65;;;19.40;99.90;;;;;;5070370;28;20206;-75
2022/06/05 06:10:22;;;;;;;9.57;7.32;;;19.40;99.90;;;;;;5069930;28;20264;-77
2022/06/05 06:12:49;;;;;;;8.73;7.78;;;19.40;99.90;;;;;;5070054;28;20202;-75
2022/06/05 06:15:16;;;;;;;6.93;6.15;;;19.50;99.90;;;;;;5070712;28;20206;-75
2022/06/05 06:17:43;;;;;;;12.40;7.00;;;19.40;99.90;;;;;;5069885;28;20260;-78
2022/06/05 06:20:12;;;;;;;7.97;7.32;;;19.30;99.90;;;;;;5070224;28;20587;-76
2022/06/05 06:22:41;;;;;;;7.50;6.85;;;19.30;99.90;;;;;;5056267;28;20216;-76
2022/06/05 06:25:09;;;;;;;9.05;7.60;;;19.20;99.90;;;;;;5067455;28;20446;-78
2022/06/05 06:27:36;;;;;;;11.18;7.32;;;19.10;99.90;;;;;;5063166;28;20210;-82
2022/06/05 06:30:03;;;;;;;7.78;6.25;;;19.00;99.90;;;;;;5058933;28;20214;-78
2022/06/05 06:32:30;;;;;;;11.65;6.30;;;19.00;99.90;;;;;;5052224;28;20256;-85
2022/06/05 06:34:57;;;;;;;7.07;6.35;;;19.00;99.90;;;;;;5052161;28;20643;-77
2022/06/05 06:37:24;;;;;;;8.15;7.13;;;19.00;99.90;;;;;;5054222;28;20299;-79
2022/06/05 06:39:52;;;;;;;7.38;6.10;;;19.10;99.90;;;;;;5052071;28;20210;-79
2022/06/05 06:42:19;;;;;;;11.68;6.43;;;19.30;99.90;;;;;;5056517;28;20206;-76
2022/06/05 06:44:46;;;;;;;12.45;6.80;;;19.50;99.90;;;;;;5061670;28;20642;-78
2022/06/05 06:47:13;;;;;;;8.43;6.75;;;19.40;99.90;;;;;;5057228;28;20536;-76
2022/06/05 06:49:40;;;;;;;5.85;5.25;;;19.30;99.90;;;;;;5055155;28;20671;-77
2022/06/05 06:52:08;;;;;;;9.05;6.25;;;19.20;99.90;;;;;;5057083;28;20202;-75
2022/06/05 06:54:34;;;;;;;6.57;5.88;;;19.00;99.90;;;;;;5057817;28;20203;-74
2022/06/05 06:57:03;;;;;;;6.75;5.53;;;19.00;1.00;;;;;;5057321;28;20729;-75
2022/06/05 06:59:30;;;;;;;6.55;5.95;;;19.20;1.00;;;;;;5060242;28;20379;-74
2022/06/05 07:01:57;;;;;;;9.15;6.22;;;19.50;1.00;;;;;;5062837;28;20210;-73
2022/06/05 07:04:24;;;;;;;8.50;5.95;;;19.90;99.90;;;;;;5062540;28;20206;-72
2022/06/05 07:06:51;;;;;;;9.80;5.70;;;19.90;1.00;;;;;;5056394;28;20253;-73
2022/06/05 07:09:18;;;;;;;11.40;5.72;;;19.90;1.00;;;;;;5061815;28;20211;-72
2022/06/05 07:11:45;;;;;;;7.60;5.25;;;19.80;1.00;;;;;;5061969;28;20245;-74
2022/06/05 07:14:16;;;;;;;7.18;6.40;;;19.80;1.00;;;;;;5069888;28;20213;-74
2022/06/05 07:16:44;;;;;;;6.20;5.25;;;20.10;1.00;;;;;;5062999;28;20480;-75
2022/06/05 07:19:11;;;;;;;7.35;5.47;;;20.30;1.00;;;;;;5066702;28;20651;-76
2022/06/05 07:21:37;;;;;;;6.35;5.05;;;20.40;1.00;;;;;;5053691;28;20218;-74
2022/06/05 07:24:05;;;;;;;8.68;5.40;;;20.40;99.90;;;;;;5055832;28;20215;-74
2022/06/05 07:26:33;;;;;;;6.68;5.80;;;20.60;99.90;;;;;;5053882;28;20731;-74
2022/06/05 07:29:01;;;;;;;8.43;5.90;;;20.70;99.90;;;;;;5056483;28;20210;-75
2022/06/05 07:31:30;;;;;;;6.28;5.35;;;20.60;99.90;;;;;;5061156;28;20207;-75
2022/06/05 07:33:58;;;;;;;6.00;5.32;;;20.60;99.90;;;;;;5069068;28;20677;-73
2022/06/05 07:36:26;;;;;;;7.82;5.32;;;20.70;99.90;;;;;;5055907;28;20238;-74
2022/06/05 07:38:55;;;;;;;6.60;4.95;;;20.60;99.90;;;;;;5059756;28;20238;-74
2022/06/05 07:41:26;;;;;;;6.00;5.38;;;20.50;99.90;;;;;;5057516;28;20215;-73
2022/06/05 07:43:53;;;;;;;5.13;4.68;;;20.40;99.90;;;;;;5060021;28;20213;-72
2022/06/05 07:46:20;;;;;;;5.75;4.55;;;20.30;99.90;;;;;;5057663;28;20670;-74
2022/06/05 07:48:49;;;;;;;5.25;4.53;;;20.20;99.90;;;;;;5058537;28;20214;-76
2022/06/05 07:56:47;;;;;;;5.00;4.60;;;20.10;99.90;;;;;;5056656;28;20209;-76
2022/06/05 07:59:15;;;;;;;6.10;4.45;;;20.00;99.90;;;;;;5060248;28;20276;-76
2022/06/05 08:01:42;;;;;;;5.55;4.97;;;19.90;99.90;;;;;;5056392;28;20253;-73
2022/06/05 08:04:10;;;;;;;8.27;4.60;;;19.80;99.90;;;;;;5059518;28;20260;-75
2022/06/05 08:06:38;;;;;;;6.50;5.30;;;19.70;99.90;;;;;;5065984;28;20630;-74
2022/06/05 08:09:06;;;;;;;7.80;5.50;;;19.60;99.90;;;;;;5061320;28;20263;-75
2022/06/05 08:11:33;;;;;;;7.28;5.75;;;19.70;99.90;;;;;;5060324;28;20214;-74
2022/06/05 08:14:01;;;;;;;8.35;5.20;;;19.80;99.90;;;;;;5069865;28;20674;-74
2022/06/05 08:16:28;;;;;;;6.13;5.32;;;19.90;99.90;;;;;;5060353;28;20210;-75
2022/06/05 08:18:55;;;;;;;7.00;4.65;;;19.90;99.90;;;;;;5071018;28;20291;-74
2022/06/05 08:21:25;;;;;;;7.38;5.03;;;19.90;99.90;;;;;;5066625;28;20206;-74
2022/06/05 08:23:53;;;;;;;6.70;6.00;;;19.80;99.90;;;;;;5065198;28;20616;-74
2022/06/05 08:26:20;;;;;;;5.25;4.75;;;19.90;99.90;;;;;;5053638;28;20199;-74
2022/06/05 08:28:48;;;;;;;6.30;4.90;;;20.00;99.90;;;;;;5059112;28;20237;-73
2022/06/05 08:31:15;;;;;;;5.38;4.93;;;20.00;99.90;;;;;;5054950;28;20199;-74
2022/06/05 08:33:42;;;;;;;5.10;4.60;;;20.00;99.90;;;;;;5060340;28;20207;-74
2022/06/05 08:36:10;;;;;;;8.27;5.00;;;20.10;99.90;;;;;;5054726;28;20289;-74
2022/06/05 08:41:42;;;;;;;6.18;4.80;;;20.00;99.90;;;;;;5055204;28;20205;-74
2022/06/05 08:44:28;;;;;;;4.53;4.00;;;20.10;99.90;;;;;;5058877;28;20209;-74
2022/06/05 08:46:59;;;;;;;7.35;5.38;;;20.10;99.90;;;;;;5065473;28;20256;-73
2022/06/05 08:49:42;;;;;;;4.97;4.57;;;20.20;99.90;;;;;;5061374;28;20235;-73
2022/06/05 08:52:20;;;;;;;7.38;4.63;;;20.20;99.90;;;;;;5055349;28;20268;-74
2022/06/05 08:54:53;;;;;;;9.07;4.90;;;20.30;99.90;;;;;;5060107;28;20712;-73
2022/06/05 08:57:25;;;;;;;8.57;4.88;;;20.40;99.90;;;;;;5055844;28;20206;-74
2022/06/05 08:59:57;;;;;;;6.07;4.88;;;20.60;99.90;;;;;;5059691;28;20657;-73
2022/06/05 09:02:33;;;;;;;5.05;4.55;;;20.80;99.90;;;;;;5055316;28;20211;-73
2022/06/05 09:05:03;;;;;;;8.15;4.60;;;20.90;99.90;;;;;;5059009;28;20589;-73
2022/06/05 09:07:35;;;;;;;6.22;5.60;;;21.00;99.90;;;;;;5055130;28;20203;-73
2022/06/05 09:10:08;;;;;;;5.32;4.82;;;21.00;99.90;;;;;;5059189;28;20326;-73
2022/06/05 09:12:41;;;;;;;4.93;4.43;;;21.10;99.90;;;;;;5062199;28;20206;-73
2022/06/05 09:15:17;;;;;;;6.55;4.72;;;21.10;99.90;;;;;;5070857;28;20213;-73
2022/06/05 09:17:55;;;;;;;6.85;4.55;;;21.30;99.90;;;;;;5070892;28;20300;-73
2022/06/05 09:20:27;;;;;;;4.85;4.35;;;21.20;99.90;;;;;;5071179;28;20212;-73
2022/06/05 09:22:59;;;;;;;6.38;4.50;;;21.40;99.90;;;;;;5071063;28;20206;-73
2022/06/05 09:25:44;;;;;;;6.78;4.15;;;21.50;99.90;;;;;;5070726;28;20660;-74
2022/06/05 09:28:51;;;;;;;6.63;4.55;;;21.60;99.90;;;;;;5071416;28;20221;-74
2022/06/05 09:31:35;;;;;;;8.73;4.35;;;21.60;99.90;;;;;;5058441;28;20236;-74
2022/06/05 09:34:11;;;;;;;5.18;4.03;;;21.70;99.90;;;;;;5070372;28;20256;-74
2022/06/05 09:36:40;;;;;;;4.03;3.60;;;21.70;99.90;;;;;;5070528;28;20236;-74
2022/06/05 09:39:21;;;;;;;11.85;5.70;;;21.60;99.90;;;;;;5069604;28;20724;-74
2022/06/05 09:42:01;;;;;;;5.43;4.18;;;21.90;99.90;;;;;;5070431;28;20209;-73
2022/06/05 09:44:48;;;;;;;4.88;4.15;;;22.20;99.90;;;;;;5070231;28;20255;-74
2022/06/05 09:47:19;;;;;;;6.60;4.00;;;22.40;99.90;;;;;;5070434;28;20621;-74
2022/06/05 09:49:51;;;;;;;5.82;3.97;;;22.60;99.90;;;;;;5070137;28;20577;-74
2022/06/05 09:52:21;;;;;;;6.25;3.95;;;22.80;99.90;;;;;;5070652;28;20217;-74
2022/06/05 09:54:57;;;;;;;6.47;4.95;;;22.70;99.90;;;;;;5070197;28;20214;-74
2022/06/05 10:00:32;;;;;;;7.78;5.00;;;23.00;99.90;;;;;;5069454;28;20221;-74
2022/06/05 10:03:04;;;;;;;5.07;4.32;;;23.30;99.90;;;;;;5070199;28;20209;-74
2022/06/05 10:05:34;;;;;;;7.20;5.95;;;23.40;99.90;;;;;;5070040;28;20206;-75
2022/06/05 10:08:07;;;;;;;6.63;5.18;;;23.60;99.90;;;;;;5070256;28;20665;-74
2022/06/05 10:10:38;;;;;;;4.88;4.40;;;23.60;99.90;;;;;;5070095;28;20630;-73
2022/06/05 10:13:16;;;;;;;8.07;5.30;;;23.30;99.90;;;;;;5070155;28;20202;-74
2022/06/05 10:15:51;;;;;;;5.38;4.05;;;23.20;99.90;;;;;;5069644;28;20212;-75
2022/06/05 10:18:23;;;;;;;4.28;3.55;;;23.40;99.90;;;;;;5070196;28;20206;-71
2022/06/05 10:20:57;;;;;;;4.45;3.67;;;23.40;99.90;;;;;;5070115;28;20203;-73
2022/06/05 10:23:44;;;;;;;6.15;4.03;;;23.60;99.90;;;;;;5070487;28;20283;-73
2022/06/05 10:26:23;;;;;;;6.43;5.82;;;24.00;99.90;;;;;;5057716;28;20202;-73
2022/06/05 10:28:54;;;;;;;4.55;3.42;;;23.90;99.90;;;;;;5070168;28;20263;-72
2022/06/05 10:31:28;;;;;;;3.05;2.83;;;23.60;99.90;;;;;;5070568;28;20256;-73
2022/06/05 10:34:04;;;;;;;7.38;3.45;;;23.50;99.90;;;;;;5070378;28;20210;-73
2022/06/05 10:36:47;;;;;;;3.22;2.92;;;23.60;99.90;;;;;;5066976;28;20548;-74
2022/06/05 10:39:19;;;;;;;4.50;3.40;;;23.70;99.90;;;;;;5069847;28;20327;-72
2022/06/05 10:42:00;;;;;;;5.95;2.72;;;23.70;99.90;;;;;;5069941;28;20206;-73
2022/06/05 10:44:36;;;;;;;2.60;2.40;;;23.70;99.90;;;;;;5069426;28;20202;-72
2022/06/05 10:47:09;;;;;;;3.70;3.28;;;24.10;99.90;;;;;;5070025;28;20627;-74
2022/06/05 10:49:46;;;;;;;5.88;2.95;;;24.30;99.90;;;;;;5069806;28;20210;-73
2022/06/05 10:52:21;;;;;;;4.50;3.05;;;24.50;99.90;;;;;;5073854;28;20267;-73
2022/06/05 10:54:55;;;;;;;5.40;2.67;;;24.70;99.90;;;;;;5073198;28;20228;-74
2022/06/05 10:57:29;;;;;;;3.42;3.13;;;24.80;99.90;;;;;;5073789;28;20628;-73
2022/06/05 11:00:03;;;;;;;4.72;3.22;;;24.90;99.90;;;;;;5073353;28;20286;-73
2022/06/05 11:02:42;;;;;;;3.75;2.45;;;25.30;99.90;;;;;;5073364;28;20210;-72
2022/06/05 11:05:32;;;;;;;4.65;2.70;;;25.70;99.90;;;;;;5073395;28;20236;-73
2022/06/05 11:08:11;;;;;;;2.40;2.20;;;25.30;99.90;;;;;;5071478;28;20267;-73
2022/06/05 11:13:49;;;;;;;2.95;2.28;;;24.30;99.90;;;;;;5072533;28;21121;-73
2022/06/05 11:16:30;;;;;;;2.70;2.50;;;24.00;99.90;;;;;;5073290;28;20202;-73
2022/06/05 11:19:09;;;;;;;3.25;2.28;;;24.00;99.90;;;;;;5072998;28;20674;-72
2022/06/05 11:21:37;;;;;;;3.47;2.63;;;23.70;99.90;;;;;;5072950;28;20546;-73
2022/06/05 11:24:15;;;;;;;4.57;2.42;;;23.10;99.90;;;;;;5073160;28;20558;-73
2022/06/05 11:26:52;;;;;;;3.78;2.13;;;22.80;99.90;;;;;;5072895;28;20213;-73
2022/06/05 11:29:26;;;;;;;2.78;2.30;;;22.60;99.90;;;;;;5072989;28;20225;-73
2022/06/05 11:32:16;;;;;;;6.40;5.80;;;22.60;99.90;;;;;;5073795;28;20604;-73
2022/06/05 11:34:50;;;;;;;3.88;3.38;;;22.90;99.90;;;;;;5060275;28;20251;-74
2022/06/05 11:37:42;;;;;;;3.25;2.67;;;23.10;99.90;;;;;;5072807;28;20266;-74
2022/06/05 11:40:21;;;;;;;4.35;3.08;;;23.40;99.90;;;;;;5073067;28;20234;-71
2022/06/05 11:43:00;;;;;;;2.75;2.55;;;23.70;99.90;;;;;;5072251;28;20201;-73
2022/06/05 11:45:40;;;;;;;6.88;2.63;;;23.90;99.90;;;;;;5072344;28;20201;-73
2022/06/05 11:48:16;;;;;;;3.38;2.42;;;24.30;99.90;;;;;;5072909;28;20210;-72
2022/06/05 11:50:52;;;;;;;3.40;2.13;;;24.40;99.90;;;;;;5072618;28;20213;-73
2022/06/05 11:53:25;;;;;;;3.42;2.58;;;24.70;99.90;;;;;;5072759;28;20235;-72
2022/06/05 11:55:58;;;;;;;2.78;2.58;;;24.90;99.90;;;;;;5072960;28;20618;-73
2022/06/05 11:58:33;;;;;;;2.88;2.67;;;25.00;99.90;;;;;;5072264;28;20657;-73
2022/06/05 12:01:06;;;;;;;4.38;3.13;;;24.70;99.90;;;;;;5072702;28;20233;-72
2022/06/05 12:03:41;;;;;;;3.35;2.33;;;24.90;99.90;;;;;;5058462;28;20202;-73
2022/06/05 12:06:16;;;;;;;3.33;2.50;;;24.90;99.90;;;;;;5069514;28;20201;-73
2022/06/05 12:08:48;;;;;;;2.70;2.17;;;24.50;99.90;;;;;;5059574;28;20267;-73
2022/06/05 12:11:22;;;;;;;2.97;2.22;;;24.30;99.90;;;;;;5072243;28;20268;-73
2022/06/05 12:13:59;;;;;;;2.47;2.28;;;23.80;99.90;;;;;;5072021;28;20263;-72
2022/06/05 12:16:33;;;;;;;2.50;2.30;;;23.70;99.90;;;;;;5072182;28;20730;-73
2022/06/05 12:19:12;;;;;;;3.72;2.63;;;24.20;99.90;;;;;;5071841;28;20742;-72
2022/06/05 12:21:52;;;;;;;4.88;2.40;;;24.70;99.90;;;;;;5071675;28;20244;-73
2022/06/05 12:24:24;;;;;;;2.83;2.58;;;25.20;99.90;;;;;;5072041;28;20241;-74
2022/06/05 12:26:55;;;;;;;2.25;2.05;;;25.30;99.90;;;;;;5071738;28;20626;-74
2022/06/05 12:29:31;;;;;;;3.25;2.30;;;24.80;99.90;;;;;;5072184;28;20318;-74
2022/06/05 12:32:02;;;;;;;3.20;2.50;;;24.60;99.90;;;;;;5072143;28;20210;-74
2022/06/05 12:34:39;;;;;;;2.47;2.15;;;25.30;99.90;;;;;;5071395;28;20216;-74
2022/06/05 12:37:15;;;;;;;2.85;2.20;;;25.10;99.90;;;;;;5071814;28;20218;-74
2022/06/05 12:39:46;;;;;;;3.45;2.53;;;24.90;99.90;;;;;;5071159;28;20306;-73
2022/06/05 12:42:29;;;;;;;2.75;2.55;;;24.60;99.90;;;;;;5071560;28;20236;-72
2022/06/05 12:44:58;;;;;;;2.28;2.08;;;24.80;99.90;;;;;;5059450;28;20202;-72
2022/06/05 12:47:47;;;;;;;4.38;1.92;;;24.50;99.90;;;;;;5071687;28;20206;-73
2022/06/05 12:50:25;;;;;;;1.98;1.88;;;24.50;99.90;;;;;;5071646;28;20210;-73
2022/06/05 12:52:58;;;;;;;3.17;2.20;;;24.50;99.90;;;;;;5071757;28;20263;-72
2022/06/05 12:55:31;;;;;;;2.33;2.20;;;24.30;99.90;;;;;;5071149;28;20260;-72
2022/06/05 12:58:05;;;;;;;3.67;3.17;;;24.50;99.90;;;;;;5071331;28;20198;-73
2022/06/05 13:00:50;;;;;;;1.50;1.40;;;25.70;99.90;;;;;;5070992;28;20237;-74
2022/06/05 13:03:25;;;;;;;4.75;1.90;;;25.60;99.90;;;;;;5071313;28;20221;-71
2022/06/05 13:05:59;;;;;;;3.47;1.75;;;25.30;99.90;;;;;;5071798;28;20210;-72
2022/06/05 13:08:31;;;;;;;5.53;1.90;;;24.80;99.90;;;;;;5071183;28;20198;-73
2022/06/05 13:11:07;;;;;;;2.78;1.95;;;24.60;99.90;;;;;;5070981;28;20207;-73
2022/06/05 13:13:44;;;;;;;2.15;1.95;;;24.70;99.90;;;;;;5070381;28;20653;-73
2022/06/05 13:16:22;;;;;;;2.58;2.05;;;24.90;99.90;;;;;;5071038;28;20206;-73
2022/06/05 13:19:07;;;;;;;2.72;2.53;;;24.80;99.90;;;;;;5070980;28;20217;-74
2022/06/05 13:21:46;;;;;;;2.13;2.03;;;24.80;99.90;;;;;;5070713;28;20206;-73
2022/06/05 13:24:24;;;;;;;2.80;1.77;;;24.80;99.90;;;;;;5070695;28;20214;-73
2022/06/05 13:26:56;;;;;;;3.22;1.95;;;24.60;99.90;;;;;;5071127;28;20210;-73
2022/06/05 13:29:39;;;;;;;5.47;2.45;;;24.60;99.90;;;;;;5071030;28;20271;-73